createdAt,value
2022-10-28T00:01:25.142Z,9.35
2022-10-28T00:04:11.438Z,9.20
2022-10-28T00:06:57.576Z,9.32
2022-10-28T00:09:46.256Z,9.80
2022-10-28T00:12:36.321Z,10.38
2022-10-28T00:15:22.505Z,8.35
2022-10-28T00:18:11.548Z,9.25
2022-10-28T00:21:02.183Z,8.63
2022-10-28T00:23:48.082Z,9.80
2022-10-28T00:26:39.192Z,9.13
2022-10-28T00:29:25.566Z,10.32
2022-10-28T00:32:13.744Z,9.30
2022-10-28T00:35:00.463Z,9.30
2022-10-28T00:37:46.555Z,8.90
2022-10-28T00:40:36.057Z,9.70
2022-10-28T00:43:37.996Z,9.85
2022-10-28T00:46:47.437Z,9.65
2022-10-28T00:49:34.704Z,9.48
2022-10-28T00:52:24.255Z,11.23
2022-10-28T00:55:10.699Z,9.02
2022-10-28T00:58:02.527Z,11.07
2022-10-28T01:00:49.234Z,9.63
2022-10-28T01:03:37.531Z,11.77
2022-10-28T01:06:36.952Z,9.82
2022-10-28T01:15:40.652Z,9.90
2022-10-28T01:18:56.203Z,10.93
2022-10-28T01:22:04.898Z,10.75
2022-10-28T01:25:09.930Z,10.45
2022-10-28T01:27:56.184Z,12.88
2022-10-28T01:31:00.012Z,10.70
2022-10-28T01:34:03.288Z,14.20
2022-10-28T01:37:12.627Z,10.35
2022-10-28T01:40:18.747Z,11.00
2022-10-28T01:43:07.919Z,10.20
2022-10-28T01:46:14.702Z,11.05
2022-10-28T01:49:09.403Z,12.98
2022-10-28T01:52:00.706Z,10.98
2022-10-28T01:57:39.917Z,11.40
2022-10-28T02:00:26.487Z,11.05
2022-10-28T02:03:12.289Z,11.65
2022-10-28T02:06:03.405Z,12.45
2022-10-28T02:09:10.216Z,11.02
2022-10-28T02:12:08.363Z,11.38
2022-10-28T02:15:13.141Z,11.85
2022-10-28T02:18:23.725Z,11.50
2022-10-28T02:21:24.887Z,15.30
2022-10-28T02:24:22.821Z,14.27
2022-10-28T02:27:16.757Z,12.68
2022-10-28T02:30:19.128Z,13.15
2022-10-28T02:33:11.527Z,13.43
2022-10-28T02:36:05.698Z,11.88
2022-10-28T02:38:58.144Z,12.43
2022-10-28T02:41:51.334Z,12.85
2022-10-28T02:44:44.443Z,13.00
2022-10-28T02:47:37.883Z,13.80
2022-10-28T02:50:31.973Z,12.50
2022-10-28T02:56:21.346Z,11.02
2022-10-28T02:59:13.044Z,11.88
2022-10-28T03:01:59.722Z,12.02
2022-10-28T03:04:46.224Z,11.68
2022-10-28T03:07:32.261Z,13.75
2022-10-28T03:10:18.639Z,12.38
2022-10-28T03:13:04.870Z,15.82
2022-10-28T03:15:50.669Z,11.75
2022-10-28T03:18:36.676Z,13.63
2022-10-28T03:21:22.688Z,12.85
2022-10-28T03:24:08.668Z,13.00
2022-10-28T03:26:54.619Z,14.30
2022-10-28T03:29:44.810Z,13.07
2022-10-28T03:32:32.441Z,13.68
2022-10-28T03:35:18.485Z,14.25
2022-10-28T03:38:04.643Z,13.93
2022-10-28T03:40:52.606Z,12.95
2022-10-28T03:43:38.414Z,12.90
2022-10-28T03:46:24.281Z,13.50
2022-10-28T03:49:10.143Z,13.60
2022-10-28T03:51:56.087Z,14.05
2022-10-28T03:54:42.113Z,13.32
2022-10-28T03:57:31.583Z,15.60
2022-10-28T04:00:18.215Z,13.57
2022-10-28T04:03:04.554Z,13.85
2022-10-28T04:05:50.978Z,13.95
2022-10-28T04:08:37.363Z,11.98
2022-10-28T04:11:23.300Z,13.20
2022-10-28T04:14:09.192Z,12.40
2022-10-28T04:16:55.295Z,11.88
2022-10-28T04:19:41.244Z,12.02
2022-10-28T04:22:27.102Z,12.05
2022-10-28T04:25:13.064Z,11.07
2022-10-28T04:27:59.028Z,11.07
2022-10-28T04:30:47.595Z,11.65
2022-10-28T04:33:34.090Z,12.65
2022-10-28T04:36:20.035Z,12.55
2022-10-28T04:39:06.471Z,13.25
2022-10-28T04:41:52.509Z,11.57
2022-10-28T04:44:38.579Z,11.57
2022-10-28T04:47:24.767Z,11.60
2022-10-28T04:50:10.959Z,13.43
2022-10-28T04:52:57.125Z,12.63
2022-10-28T04:55:43.631Z,11.70
2022-10-28T04:58:29.663Z,12.55
2022-10-28T05:01:15.715Z,12.07
2022-10-28T05:04:01.855Z,13.93
2022-10-28T05:06:48.148Z,12.90
2022-10-28T05:09:34.186Z,11.88
2022-10-28T05:12:20.423Z,12.57
2022-10-28T05:15:07.289Z,11.85
2022-10-28T05:17:53.769Z,11.10
2022-10-28T05:20:40.719Z,11.45
2022-10-28T05:23:28.506Z,10.85
2022-10-28T05:26:17.707Z,11.57
2022-10-28T05:29:03.939Z,9.57
2022-10-28T05:31:57.600Z,9.70
2022-10-28T05:34:43.597Z,9.63
2022-10-28T05:37:29.754Z,8.68
2022-10-28T05:40:15.689Z,9.40
2022-10-28T05:43:02.440Z,9.38
2022-10-28T05:45:56.352Z,10.77
2022-10-28T05:51:28.439Z,8.23
2022-10-28T05:54:14.771Z,10.38
2022-10-28T05:57:03.357Z,7.57
2022-10-28T05:59:49.390Z,8.93
2022-10-28T06:02:35.645Z,8.68
2022-10-28T06:05:21.783Z,8.48
2022-10-28T06:08:08.547Z,9.00
2022-10-28T06:10:56.659Z,8.10
2022-10-28T06:13:42.549Z,7.03
2022-10-28T06:16:28.392Z,8.45
2022-10-28T06:19:14.426Z,7.85
2022-10-28T06:22:00.412Z,8.30
2022-10-28T06:24:46.351Z,7.90
2022-10-28T06:27:32.241Z,7.90
2022-10-28T06:30:18.437Z,8.60
2022-10-28T06:33:04.571Z,7.65
2022-10-28T06:35:56.388Z,8.38
2022-10-28T06:38:42.784Z,9.20
2022-10-28T06:41:28.872Z,7.88
2022-10-28T06:44:15.037Z,8.25
2022-10-28T06:47:02.577Z,8.35
2022-10-28T06:49:48.549Z,6.93
2022-10-28T06:52:34.737Z,8.30
2022-10-28T06:55:23.101Z,7.18
2022-10-28T06:58:10.107Z,6.50
2022-10-28T07:00:58.609Z,6.88
2022-10-28T07:03:44.591Z,7.25
2022-10-28T07:06:30.503Z,6.88
2022-10-28T07:09:16.471Z,7.45
2022-10-28T07:12:05.057Z,6.90
2022-10-28T07:14:51.777Z,9.10
2022-10-28T07:17:37.837Z,8.75
2022-10-28T07:20:25.356Z,6.82
2022-10-28T07:23:11.857Z,6.45
2022-10-28T07:25:58.060Z,6.97
2022-10-28T07:28:44.075Z,8.45
2022-10-28T07:31:31.382Z,6.25
2022-10-28T07:34:17.618Z,7.25
2022-10-28T07:37:04.454Z,7.85
2022-10-28T07:39:50.439Z,6.45
2022-10-28T07:42:37.931Z,6.63
2022-10-28T07:45:24.074Z,7.10
2022-10-28T07:48:10.041Z,9.05
2022-10-28T07:50:55.985Z,6.57
2022-10-28T07:53:42.635Z,8.55
2022-10-28T07:56:28.800Z,7.28
2022-10-28T07:59:14.821Z,6.88
2022-10-28T08:02:00.839Z,6.95
2022-10-28T08:04:47.117Z,8.55
2022-10-28T08:07:36.210Z,9.00
2022-10-28T08:10:27.467Z,9.75
2022-10-28T08:13:13.373Z,10.88
2022-10-28T08:15:59.368Z,10.68
2022-10-28T08:18:45.932Z,9.63
2022-10-28T08:21:32.572Z,8.32
2022-10-28T08:24:18.856Z,7.53
2022-10-28T08:27:05.148Z,7.40
2022-10-28T08:29:53.262Z,6.90
2022-10-28T08:32:39.248Z,7.88
2022-10-28T08:35:25.124Z,7.50
2022-10-28T08:38:11.126Z,7.57
2022-10-28T08:41:25.512Z,9.52
2022-10-28T08:44:41.156Z,9.52
2022-10-28T08:47:47.241Z,11.02
2022-10-28T08:50:45.175Z,9.45
2022-10-28T08:54:03.019Z,8.15
2022-10-28T08:56:51.338Z,7.35
2022-10-28T08:59:40.899Z,8.05
2022-10-28T09:02:31.947Z,7.30
2022-10-28T09:05:22.695Z,7.32
2022-10-28T09:08:26.340Z,7.70
2022-10-28T09:11:37.257Z,8.02
2022-10-28T09:14:43.155Z,8.38
2022-10-28T09:17:36.631Z,8.82
2022-10-28T09:20:44.456Z,8.25
2022-10-28T09:23:34.263Z,8.10
2022-10-28T09:26:48.663Z,7.85
2022-10-28T09:32:52.559Z,4.45
2022-10-28T09:35:43.672Z,4.97
2022-10-28T09:38:40.461Z,4.15
2022-10-28T09:41:38.862Z,4.75
2022-10-28T09:44:45.244Z,4.13
2022-10-28T09:47:38.332Z,3.67
2022-10-28T09:50:29.647Z,3.30
2022-10-28T09:53:51.099Z,4.50
2022-10-28T09:56:37.931Z,3.00
2022-10-28T09:59:24.130Z,2.97
2022-10-28T10:02:27.524Z,2.17
2022-10-28T10:05:17.368Z,2.55
2022-10-28T10:08:05.426Z,2.63
2022-10-28T10:11:04.203Z,2.20
2022-10-28T10:13:51.718Z,2.22
2022-10-28T10:16:46.852Z,2.00
2022-10-28T10:20:03.070Z,1.77
2022-10-28T10:22:50.282Z,1.73
2022-10-28T10:25:36.422Z,2.28
2022-10-28T10:28:23.552Z,2.03
2022-10-28T10:31:27.008Z,1.80
2022-10-28T10:34:33.347Z,2.30
2022-10-28T10:37:30.508Z,2.47
2022-10-28T10:40:16.463Z,3.63
2022-10-28T10:43:17.805Z,2.72
2022-10-28T10:46:17.819Z,2.53
2022-10-28T10:49:14.867Z,2.00
2022-10-28T10:52:04.646Z,2.13
2022-10-28T10:55:07.351Z,2.03
2022-10-28T10:57:54.368Z,2.65
2022-10-28T11:00:50.393Z,2.05
2022-10-28T11:03:51.131Z,2.03
2022-10-28T11:06:40.678Z,2.55
2022-10-28T11:09:35.026Z,2.20
2022-10-28T11:12:35.611Z,2.05
2022-10-28T11:15:28.220Z,3.15
2022-10-28T11:18:20.899Z,1.75
2022-10-28T11:21:45.100Z,2.35
2022-10-28T11:27:38.409Z,2.28
2022-10-28T11:30:43.618Z,2.50
2022-10-28T11:33:51.146Z,1.85
2022-10-28T11:37:12.095Z,2.13
2022-10-28T11:40:33.394Z,2.03
2022-10-28T11:43:37.318Z,2.65
2022-10-28T11:46:32.011Z,2.20
2022-10-28T11:49:40.963Z,2.35
2022-10-28T11:52:45.257Z,2.47
2022-10-28T11:55:51.020Z,2.28
2022-10-28T11:59:02.242Z,2.45
2022-10-28T12:01:57.354Z,2.42
2022-10-28T12:04:49.102Z,2.25
2022-10-28T12:07:41.424Z,3.10
2022-10-28T12:10:35.962Z,2.50
2022-10-28T12:13:45.122Z,2.38
2022-10-28T12:16:43.367Z,4.63
2022-10-28T12:19:46.259Z,3.13
2022-10-28T12:22:46.810Z,2.40
2022-10-28T12:25:36.752Z,3.20
2022-10-28T12:28:43.687Z,2.78
2022-10-28T12:31:39.825Z,2.95
2022-10-28T12:34:42.253Z,2.38
2022-10-28T12:37:38.104Z,2.45
2022-10-28T12:40:35.411Z,2.65
2022-10-28T12:43:32.535Z,2.17
2022-10-28T12:46:37.126Z,3.30
2022-10-28T12:49:49.531Z,3.05
2022-10-28T12:52:56.066Z,2.58
2022-10-28T12:56:00.249Z,2.83
2022-10-28T12:58:52.680Z,2.45
2022-10-28T13:01:39.892Z,2.20
2022-10-28T13:04:27.342Z,2.92
2022-10-28T13:07:25.234Z,2.17
2022-10-28T13:10:31.275Z,2.45
2022-10-28T13:13:17.590Z,2.72
2022-10-28T13:16:17.402Z,2.78
2022-10-28T13:19:35.763Z,3.20
2022-10-28T13:22:57.252Z,2.92
2022-10-28T13:26:09.489Z,2.22
2022-10-28T13:28:59.446Z,2.28
2022-10-28T13:31:47.673Z,2.53
2022-10-28T13:34:37.596Z,2.38
2022-10-28T13:37:32.540Z,2.33
2022-10-28T13:40:42.032Z,2.20
2022-10-28T13:43:49.554Z,2.30
2022-10-28T13:47:04.282Z,2.55
2022-10-28T13:50:08.590Z,2.63
2022-10-28T13:53:37.923Z,2.17
2022-10-28T13:56:27.081Z,2.72
2022-10-28T13:59:13.238Z,2.38
2022-10-28T14:02:35.268Z,2.83
2022-10-28T14:05:37.017Z,2.90
2022-10-28T14:08:34.178Z,2.33
2022-10-28T14:11:24.579Z,3.22
2022-10-28T14:14:16.760Z,2.75
2022-10-28T14:17:04.262Z,2.40
2022-10-28T14:19:53.053Z,2.70
2022-10-28T14:22:39.034Z,2.42
2022-10-28T14:25:45.511Z,3.15
2022-10-28T14:28:31.952Z,2.00
2022-10-28T14:31:35.650Z,2.00
2022-10-28T14:34:21.507Z,2.28
2022-10-28T14:37:12.898Z,2.05
2022-10-28T14:40:06.446Z,2.13
2022-10-28T14:43:01.739Z,2.90
2022-10-28T14:46:12.224Z,2.35
2022-10-28T14:48:59.476Z,2.95
2022-10-28T14:51:46.682Z,2.60
2022-10-28T14:54:48.941Z,2.40
2022-10-28T14:57:35.032Z,3.33
2022-10-28T15:00:25.827Z,2.42
2022-10-28T15:03:14.051Z,2.85
2022-10-28T15:06:19.334Z,2.80
2022-10-28T15:09:25.154Z,2.45
2022-10-28T15:12:17.167Z,2.78
2022-10-28T15:15:04.589Z,2.50
2022-10-28T15:17:51.401Z,2.83
2022-10-28T15:20:37.487Z,3.00
2022-10-28T15:23:24.578Z,2.33
2022-10-28T15:26:15.628Z,2.42
2022-10-28T15:29:02.003Z,2.80
2022-10-28T15:32:33.384Z,2.83
2022-10-28T15:35:29.680Z,2.45
2022-10-28T15:38:21.799Z,3.17
2022-10-28T15:41:22.898Z,3.28
2022-10-28T15:44:37.449Z,2.80
2022-10-28T15:47:34.170Z,3.17
2022-10-28T15:50:22.873Z,3.33
2022-10-28T15:53:11.636Z,3.63
2022-10-28T15:56:19.369Z,2.80
2022-10-28T15:59:20.930Z,3.72
2022-10-28T16:02:42.631Z,2.55
2022-10-28T16:05:34.742Z,3.47
2022-10-28T16:08:32.304Z,3.40
2022-10-28T16:11:20.055Z,3.30
2022-10-28T16:14:39.529Z,4.03
2022-10-28T16:17:29.237Z,3.30
2022-10-28T16:20:20.586Z,3.72
2022-10-28T16:23:22.400Z,3.85
2022-10-28T16:26:12.037Z,3.20
2022-10-28T16:28:57.895Z,3.95
2022-10-28T16:31:46.860Z,3.80
2022-10-28T16:34:32.812Z,3.80
2022-10-28T16:37:27.068Z,4.28
2022-10-28T16:40:37.621Z,2.90
2022-10-28T16:43:25.573Z,2.63
2022-10-28T16:46:12.939Z,3.15
2022-10-28T16:48:58.769Z,2.78
2022-10-28T16:51:45.436Z,2.70
2022-10-28T16:54:31.306Z,4.72
2022-10-28T16:57:19.501Z,3.17
2022-10-28T17:00:06.706Z,3.55
2022-10-28T17:02:54.079Z,3.67
2022-10-28T17:05:40.500Z,3.40
2022-10-28T17:08:49.398Z,3.90
2022-10-28T17:11:33.922Z,3.22
2022-10-28T17:14:19.845Z,4.40
2022-10-28T17:17:05.697Z,4.50
2022-10-28T17:19:53.693Z,4.28
2022-10-28T17:22:40.771Z,4.68
2022-10-28T17:25:28.260Z,4.15
2022-10-28T17:28:14.461Z,4.35
2022-10-28T17:31:08.383Z,3.45
2022-10-28T17:33:55.119Z,3.92
2022-10-28T17:36:41.195Z,3.30
2022-10-28T17:39:27.160Z,3.90
2022-10-28T17:42:13.432Z,4.05
2022-10-28T17:45:03.593Z,4.18
2022-10-28T17:47:49.989Z,3.65
2022-10-28T17:50:35.995Z,3.80
2022-10-28T17:53:22.232Z,3.05
2022-10-28T17:56:12.512Z,2.25
2022-10-28T17:59:02.242Z,2.10
2022-10-28T18:01:49.304Z,2.58
2022-10-28T18:04:35.562Z,2.00
2022-10-28T18:07:21.706Z,2.58
2022-10-28T18:10:08.542Z,2.38
2022-10-28T18:12:54.640Z,2.75
2022-10-28T18:15:40.936Z,2.60
2022-10-28T18:18:26.877Z,1.85
2022-10-28T18:21:24.328Z,3.42
2022-10-28T18:24:11.918Z,2.22
2022-10-28T18:26:58.402Z,2.42
2022-10-28T18:29:44.430Z,2.58
2022-10-28T18:32:32.308Z,2.70
2022-10-28T18:35:18.447Z,2.83
2022-10-28T18:38:04.506Z,3.05
2022-10-28T18:40:50.464Z,4.20
2022-10-28T18:43:36.511Z,3.50
2022-10-28T18:46:23.184Z,3.17
2022-10-28T18:49:09.353Z,3.20
2022-10-28T18:51:55.307Z,3.70
2022-10-28T18:54:41.244Z,4.30
2022-10-28T18:57:28.162Z,4.47
2022-10-28T19:00:18.663Z,6.63
2022-10-28T19:03:05.859Z,5.40
2022-10-28T19:05:52.000Z,5.70
2022-10-28T19:08:38.661Z,5.53
2022-10-28T19:11:32.776Z,4.40
2022-10-28T19:14:18.624Z,4.88
2022-10-28T19:17:07.018Z,4.25
2022-10-28T19:19:53.011Z,3.50
2022-10-28T19:22:38.956Z,4.25
2022-10-28T19:25:24.820Z,4.60
2022-10-28T19:28:10.906Z,4.20
2022-10-28T19:31:05.801Z,4.05
2022-10-28T19:33:53.557Z,3.92
2022-10-28T19:36:39.475Z,3.97
2022-10-28T19:39:25.419Z,4.55
2022-10-28T19:42:11.260Z,3.88
2022-10-28T19:44:57.908Z,3.80
2022-10-28T19:47:44.210Z,5.63
2022-10-28T19:50:31.308Z,3.50
2022-10-28T19:53:17.240Z,5.07
2022-10-28T19:56:04.612Z,4.35
2022-10-28T19:58:53.380Z,3.88
2022-10-28T20:01:43.830Z,4.75
2022-10-28T20:04:30.729Z,4.55
2022-10-28T20:07:16.609Z,3.90
2022-10-28T20:10:02.554Z,4.72
2022-10-28T20:12:48.655Z,5.10
2022-10-28T20:15:34.458Z,4.10
2022-10-28T20:18:20.652Z,4.13
2022-10-28T20:21:15.731Z,4.50
2022-10-28T20:24:04.431Z,4.60
2022-10-28T20:26:50.808Z,4.97
2022-10-28T20:29:36.578Z,5.00
2022-10-28T20:32:24.674Z,5.38
2022-10-28T20:35:10.937Z,4.72
2022-10-28T20:37:57.722Z,5.03
2022-10-28T20:41:02.490Z,6.15
2022-10-28T20:43:53.358Z,6.57
2022-10-28T20:46:40.850Z,6.38
2022-10-28T20:49:27.389Z,6.55
2022-10-28T20:52:16.534Z,6.45
2022-10-28T20:55:03.079Z,7.50
2022-10-28T20:57:49.910Z,7.05
2022-10-28T21:00:35.986Z,7.35
2022-10-28T21:03:22.360Z,6.70
2022-10-28T21:06:09.113Z,6.53
2022-10-28T21:08:56.526Z,6.95
2022-10-28T21:11:44.716Z,9.18
2022-10-28T21:14:31.493Z,5.88
2022-10-28T21:17:17.767Z,6.18
2022-10-28T21:20:04.074Z,5.75
2022-10-28T21:22:50.376Z,6.63
2022-10-28T21:25:36.394Z,6.78
2022-10-28T21:28:22.730Z,7.30
2022-10-28T21:31:12.361Z,4.63
2022-10-28T21:33:59.173Z,5.30
2022-10-28T21:36:46.612Z,5.55
2022-10-28T21:39:32.598Z,5.53
2022-10-28T21:42:18.873Z,6.32
2022-10-28T21:45:07.517Z,6.45
2022-10-28T21:47:56.965Z,7.22
2022-10-28T21:50:50.942Z,7.15
2022-10-28T21:53:38.259Z,6.68
2022-10-28T21:56:27.398Z,7.00
2022-10-28T21:59:13.750Z,7.75
2022-10-28T22:01:59.715Z,7.07
2022-10-28T22:04:46.144Z,8.45
2022-10-28T22:07:34.997Z,8.18
2022-10-28T22:10:20.918Z,7.43
2022-10-28T22:13:06.914Z,7.68
2022-10-28T22:15:57.897Z,8.20
2022-10-28T22:18:44.804Z,8.35
2022-10-28T22:21:33.524Z,6.32
2022-10-28T22:24:19.410Z,7.63
2022-10-28T22:27:06.052Z,7.43
2022-10-28T22:29:52.681Z,7.00
2022-10-28T22:32:38.983Z,7.00
2022-10-28T22:35:24.821Z,7.03
2022-10-28T22:38:10.774Z,7.47
2022-10-28T22:41:20.920Z,7.10
2022-10-28T22:44:07.562Z,6.45
2022-10-28T22:46:56.568Z,7.35
2022-10-28T22:49:42.502Z,7.00
2022-10-28T22:52:28.452Z,6.90
2022-10-28T22:55:15.183Z,6.38
2022-10-28T22:58:01.586Z,6.13
2022-10-28T23:00:47.631Z,5.38
2022-10-28T23:03:42.100Z,5.07
2022-10-28T23:06:28.687Z,5.57
2022-10-28T23:09:14.640Z,5.85
2022-10-28T23:12:00.575Z,4.90
2022-10-28T23:14:46.457Z,5.13
2022-10-28T23:17:32.251Z,5.43
2022-10-28T23:20:19.819Z,4.47
2022-10-28T23:23:06.075Z,5.80
2022-10-28T23:25:53.505Z,4.70
2022-10-28T23:28:40.467Z,5.50
2022-10-28T23:31:27.550Z,5.28
2022-10-28T23:34:13.422Z,5.63
2022-10-28T23:36:59.524Z,5.85
2022-10-28T23:39:45.431Z,6.78
2022-10-28T23:42:31.503Z,5.22
2022-10-28T23:45:17.485Z,5.00
2022-10-28T23:48:03.258Z,7.03
2022-10-28T23:50:49.470Z,4.72
2022-10-28T23:53:35.444Z,5.72
2022-10-28T23:56:24.570Z,4.50
2022-10-28T23:59:10.701Z,5.10
